createdAt,value
2022-10-22T00:02:08.850Z,15.35
2022-10-22T00:05:50.563Z,10.13
2022-10-22T00:09:32.493Z,11.45
2022-10-22T00:13:14.498Z,12.10
2022-10-22T00:16:56.438Z,19.08
2022-10-22T00:20:38.394Z,11.10
2022-10-22T00:24:20.194Z,12.23
2022-10-22T00:28:02.585Z,12.13
2022-10-22T00:31:49.622Z,9.75
2022-10-22T00:35:31.344Z,13.20
2022-10-22T00:39:16.102Z,11.60
2022-10-22T00:42:59.041Z,11.52
2022-10-22T00:46:40.701Z,12.80
2022-10-22T00:50:30.007Z,8.40
2022-10-22T00:54:11.807Z,4.47
2022-10-22T00:57:54.717Z,10.05
2022-10-22T01:01:36.566Z,7.07
2022-10-22T01:05:18.418Z,9.55
2022-10-22T01:09:08.026Z,8.70
2022-10-22T01:13:23.608Z,7.63
2022-10-22T01:17:08.411Z,10.55
2022-10-22T01:21:12.510Z,6.70
2022-10-22T01:24:56.818Z,8.73
2022-10-22T01:28:58.894Z,7.85
2022-10-22T01:32:48.159Z,7.10
2022-10-22T01:36:30.553Z,10.02
2022-10-22T01:40:12.252Z,6.75
2022-10-22T01:43:53.940Z,7.57
2022-10-22T01:47:55.865Z,9.20
2022-10-22T01:51:43.561Z,4.30
2022-10-22T01:55:29.959Z,4.40
2022-10-22T01:59:26.986Z,8.38
2022-10-22T02:03:16.556Z,6.63
2022-10-22T02:07:01.742Z,7.18
2022-10-22T02:10:44.593Z,3.65
2022-10-22T02:14:26.320Z,4.97
2022-10-22T02:18:08.338Z,6.55
2022-10-22T02:21:50.577Z,3.90
2022-10-22T02:25:34.101Z,6.18
2022-10-22T02:29:21.927Z,8.25
2022-10-22T02:33:05.940Z,15.68
2022-10-22T02:36:49.744Z,6.28
2022-10-22T02:40:32.479Z,9.05
2022-10-22T02:44:14.229Z,7.25
2022-10-22T02:47:55.893Z,8.18
2022-10-22T02:51:37.857Z,8.05
2022-10-22T02:55:19.588Z,8.63
2022-10-22T02:59:01.265Z,8.20
2022-10-22T03:02:42.939Z,6.20
2022-10-22T03:10:07.776Z,7.45
2022-10-22T03:13:49.657Z,5.97
2022-10-22T03:17:31.404Z,8.13
2022-10-22T03:21:24.941Z,14.07
2022-10-22T03:25:09.148Z,10.57
2022-10-22T03:28:50.818Z,7.90
2022-10-22T03:32:32.718Z,11.27
2022-10-22T03:36:14.402Z,10.85
2022-10-22T03:39:56.074Z,10.40
2022-10-22T03:43:41.155Z,13.35
2022-10-22T03:47:24.473Z,7.72
2022-10-22T03:51:06.885Z,9.57
2022-10-22T03:54:48.586Z,9.32
2022-10-22T03:58:30.285Z,13.18
2022-10-22T04:02:12.523Z,10.98
2022-10-22T04:05:54.186Z,9.95
2022-10-22T04:09:36.011Z,8.02
2022-10-22T04:13:17.795Z,8.52
2022-10-22T04:16:59.478Z,7.07
2022-10-22T04:20:45.562Z,10.50
2022-10-22T04:24:27.372Z,11.10
2022-10-22T04:28:09.619Z,11.10
2022-10-22T04:32:10.375Z,16.13
2022-10-22T04:35:52.100Z,7.63
2022-10-22T04:39:33.773Z,10.75
2022-10-22T04:43:15.504Z,12.27
2022-10-22T04:46:57.189Z,16.25
2022-10-22T04:50:40.020Z,9.60
2022-10-22T04:54:22.366Z,16.47
2022-10-22T04:58:04.170Z,10.70
2022-10-22T05:01:47.062Z,11.73
2022-10-22T05:05:28.724Z,13.03
2022-10-22T05:09:15.420Z,9.07
2022-10-22T05:12:57.303Z,14.60
2022-10-22T05:16:39.141Z,8.73
2022-10-22T05:20:20.872Z,16.77
2022-10-22T05:24:02.574Z,11.10
2022-10-22T05:27:44.247Z,16.70
2022-10-22T05:31:26.150Z,19.80
2022-10-22T05:35:08.155Z,18.83
2022-10-22T05:38:49.982Z,13.65
2022-10-22T05:42:33.158Z,15.98
2022-10-22T05:46:21.216Z,13.45
2022-10-22T05:50:04.265Z,20.67
2022-10-22T05:53:46.072Z,15.35
2022-10-22T05:57:27.750Z,11.48
2022-10-22T06:01:16.087Z,14.43
2022-10-22T06:04:57.818Z,13.55
2022-10-22T06:08:39.571Z,14.85
2022-10-22T06:12:21.317Z,16.23
2022-10-22T06:16:03.167Z,11.30
2022-10-22T06:19:44.839Z,13.95
2022-10-22T06:23:26.842Z,20.35
2022-10-22T06:27:08.512Z,16.20
2022-10-22T06:30:50.475Z,9.88
2022-10-22T06:34:32.208Z,11.80
2022-10-22T06:38:14.170Z,14.77
2022-10-22T06:41:57.130Z,16.50
2022-10-22T06:45:38.789Z,12.90
2022-10-22T06:49:20.798Z,12.07
2022-10-22T06:53:03.717Z,16.38
2022-10-22T06:56:45.449Z,17.73
2022-10-22T07:00:27.460Z,19.98
2022-10-22T07:04:10.436Z,14.18
2022-10-22T07:07:52.120Z,23.23
2022-10-22T07:11:44.389Z,14.07
2022-10-22T07:15:26.126Z,18.13
2022-10-22T07:19:07.864Z,17.63
2022-10-22T07:22:50.140Z,15.85
2022-10-22T07:26:32.730Z,15.30
2022-10-22T07:30:14.546Z,19.08
2022-10-22T07:33:56.386Z,17.40
2022-10-22T07:37:38.222Z,20.42
2022-10-22T07:41:23.606Z,13.77
2022-10-22T07:45:05.718Z,15.10
2022-10-22T07:48:47.474Z,17.90
2022-10-22T07:52:30.370Z,20.27
2022-10-22T07:56:12.134Z,12.27
2022-10-22T07:59:53.814Z,23.20
2022-10-22T08:03:36.763Z,11.27
2022-10-22T08:07:19.038Z,11.80
2022-10-22T08:11:01.268Z,16.67
2022-10-22T08:14:42.981Z,15.05
2022-10-22T08:18:25.084Z,15.15
2022-10-22T08:22:06.904Z,25.52
2022-10-22T08:25:48.670Z,13.35
2022-10-22T08:29:30.340Z,15.05
2022-10-22T08:33:13.234Z,22.20
2022-10-22T08:36:55.059Z,16.37
2022-10-22T08:40:38.675Z,14.02
2022-10-22T08:44:29.305Z,17.63
2022-10-22T08:48:14.484Z,19.15
2022-10-22T08:52:00.215Z,18.15
2022-10-22T08:55:42.177Z,11.50
2022-10-22T08:59:26.971Z,13.52
2022-10-22T09:03:31.780Z,11.23
2022-10-22T09:07:13.449Z,22.17
2022-10-22T09:10:58.846Z,17.67
2022-10-22T09:14:40.621Z,16.05
2022-10-22T09:18:54.308Z,13.35
2022-10-22T09:22:45.089Z,17.75
2022-10-22T09:26:27.525Z,18.90
2022-10-22T09:30:18.262Z,16.17
2022-10-22T09:34:05.758Z,17.67
2022-10-22T09:37:52.521Z,20.73
2022-10-22T09:41:35.359Z,16.02
2022-10-22T09:45:23.265Z,14.93
2022-10-22T09:49:10.489Z,14.55
2022-10-22T09:53:04.296Z,16.10
2022-10-22T10:00:53.339Z,18.02
2022-10-22T10:04:36.280Z,17.40
2022-10-22T10:08:18.239Z,20.40
2022-10-22T10:12:23.621Z,21.58
2022-10-22T10:16:13.642Z,17.92
2022-10-22T10:20:03.783Z,18.00
2022-10-22T10:23:56.966Z,14.70
2022-10-22T10:27:41.366Z,16.55
2022-10-22T10:31:23.178Z,15.30
2022-10-22T10:35:28.705Z,15.57
2022-10-22T10:39:33.498Z,14.52
2022-10-22T10:43:35.539Z,16.52
2022-10-22T10:47:21.123Z,20.02
2022-10-22T10:51:26.385Z,14.13
2022-10-22T10:55:49.630Z,13.95
2022-10-22T10:59:37.338Z,17.30
2022-10-22T11:03:46.690Z,14.55
2022-10-22T11:07:50.985Z,12.23
2022-10-22T11:11:48.648Z,17.55
2022-10-22T11:15:34.977Z,10.77
2022-10-22T11:19:50.263Z,9.88
2022-10-22T11:23:48.053Z,12.90
2022-10-22T11:28:07.805Z,9.35
2022-10-22T11:31:51.205Z,11.63
2022-10-22T11:35:40.931Z,8.60
2022-10-22T11:39:43.301Z,17.98
2022-10-22T11:43:51.421Z,13.05
2022-10-22T11:47:35.266Z,15.70
2022-10-22T11:51:35.734Z,9.95
2022-10-22T11:55:48.248Z,10.57
2022-10-22T11:59:43.063Z,10.30
2022-10-22T12:03:34.711Z,9.15
2022-10-22T12:07:48.332Z,8.32
2022-10-22T12:11:39.576Z,10.02
2022-10-22T12:15:23.671Z,6.93
2022-10-22T12:19:11.398Z,5.47
2022-10-22T12:22:53.211Z,4.07
2022-10-22T12:26:34.970Z,7.00
2022-10-22T12:30:23.621Z,11.95
2022-10-22T12:34:05.472Z,8.00
2022-10-22T12:37:56.273Z,14.30
2022-10-22T12:41:39.264Z,11.70
2022-10-22T12:45:21.266Z,10.02
2022-10-22T12:49:04.778Z,7.28
2022-10-22T12:56:31.630Z,10.57
2022-10-22T13:00:34.382Z,9.98
2022-10-22T13:04:33.821Z,8.90
2022-10-22T13:08:20.785Z,12.95
2022-10-22T13:12:06.165Z,10.40
2022-10-22T13:15:47.842Z,9.48
2022-10-22T13:19:53.679Z,9.80
2022-10-22T13:23:36.818Z,10.20
2022-10-22T13:27:18.549Z,13.18
2022-10-22T13:31:16.076Z,8.57
2022-10-22T13:35:01.572Z,14.30
2022-10-22T13:38:43.778Z,9.10
2022-10-22T13:42:25.677Z,10.50
2022-10-22T13:46:09.124Z,9.65
2022-10-22T13:53:32.822Z,10.48
2022-10-22T13:57:14.481Z,7.13
2022-10-22T14:00:58.276Z,10.20
2022-10-22T14:04:40.789Z,10.18
2022-10-22T14:08:23.366Z,12.70
2022-10-22T14:12:14.376Z,11.93
2022-10-22T14:15:56.052Z,16.00
2022-10-22T14:19:37.750Z,7.85
2022-10-22T14:23:22.190Z,8.80
2022-10-22T14:27:03.933Z,7.97
2022-10-22T14:30:47.389Z,11.68
2022-10-22T14:34:29.083Z,10.98
2022-10-22T14:38:10.964Z,13.00
2022-10-22T14:41:52.776Z,10.18
2022-10-22T14:45:34.514Z,11.85
2022-10-22T14:49:16.187Z,7.00
2022-10-22T14:53:00.122Z,12.38
2022-10-22T14:56:41.792Z,8.85
2022-10-22T15:00:23.722Z,10.60
2022-10-22T15:04:05.507Z,9.60
2022-10-22T15:07:47.585Z,11.65
2022-10-22T15:11:29.341Z,13.20
2022-10-22T15:15:11.194Z,10.18
2022-10-22T15:18:53.358Z,13.15
2022-10-22T15:22:35.454Z,17.13
2022-10-22T15:26:17.390Z,10.50
2022-10-22T15:29:59.196Z,12.48
2022-10-22T15:33:42.928Z,14.68
2022-10-22T15:37:24.615Z,11.07
2022-10-22T15:41:07.342Z,13.88
2022-10-22T15:44:48.999Z,11.10
2022-10-22T15:48:30.699Z,9.02
2022-10-22T15:52:15.784Z,9.85
2022-10-22T15:55:57.515Z,11.32
2022-10-22T15:59:39.213Z,11.43
2022-10-22T16:03:21.062Z,14.18
2022-10-22T16:07:02.812Z,12.13
2022-10-22T16:10:48.532Z,13.52
2022-10-22T16:14:30.367Z,16.40
2022-10-22T16:18:12.030Z,8.95
2022-10-22T16:21:54.818Z,11.00
2022-10-22T16:25:42.987Z,12.83
2022-10-22T16:29:24.664Z,11.98
2022-10-22T16:33:06.819Z,15.18
2022-10-22T16:36:48.945Z,13.38
2022-10-22T16:40:50.485Z,16.05
2022-10-22T16:44:32.168Z,11.30
2022-10-22T16:48:13.861Z,12.55
2022-10-22T16:51:55.752Z,14.63
2022-10-22T16:55:40.816Z,9.27
2022-10-22T16:59:22.503Z,14.65
2022-10-22T17:03:04.250Z,12.52
2022-10-22T17:06:45.919Z,17.65
2022-10-22T17:10:27.864Z,15.50
2022-10-22T17:14:09.825Z,14.73
2022-10-22T17:17:53.690Z,13.18
2022-10-22T17:21:36.633Z,16.45
2022-10-22T17:25:25.808Z,12.70
2022-10-22T17:29:07.491Z,13.30
2022-10-22T17:32:49.414Z,15.05
2022-10-22T17:36:34.858Z,10.00
2022-10-22T17:40:17.977Z,16.08
2022-10-22T17:44:02.944Z,11.38
2022-10-22T17:47:44.624Z,12.18
2022-10-22T17:51:28.439Z,13.77
2022-10-22T17:55:12.070Z,13.13
2022-10-22T18:02:35.751Z,13.10
2022-10-22T18:06:17.521Z,11.43
2022-10-22T18:09:59.211Z,17.45
2022-10-22T18:13:40.888Z,8.13
2022-10-22T18:17:22.561Z,13.55
2022-10-22T18:21:05.134Z,14.30
2022-10-22T18:24:47.018Z,18.20
2022-10-22T18:28:28.694Z,17.08
2022-10-22T18:32:13.294Z,15.02
2022-10-22T18:35:56.834Z,17.63
2022-10-22T18:39:38.583Z,19.58
2022-10-22T18:43:20.465Z,22.25
2022-10-22T18:47:02.295Z,29.38
2022-10-22T18:50:47.209Z,18.75
2022-10-22T18:54:28.949Z,12.25
2022-10-22T18:58:10.674Z,12.40
2022-10-22T19:01:54.389Z,21.70
2022-10-22T19:05:46.257Z,12.73
2022-10-22T19:09:28.842Z,12.88
2022-10-22T19:13:10.670Z,32.33
2022-10-22T19:16:52.374Z,29.90
2022-10-22T19:20:35.707Z,25.75
2022-10-22T19:24:18.241Z,24.02
2022-10-22T19:27:59.926Z,37.22
2022-10-22T19:31:41.799Z,30.80
2022-10-22T19:35:23.475Z,18.17
2022-10-22T19:39:05.358Z,15.15
2022-10-22T19:42:50.323Z,18.85
2022-10-22T19:46:32.653Z,20.67
2022-10-22T19:50:14.412Z,16.00
2022-10-22T19:53:59.950Z,15.95
2022-10-22T19:57:41.776Z,22.55
2022-10-22T20:01:23.851Z,25.67
2022-10-22T20:05:05.930Z,17.45
2022-10-22T20:08:49.091Z,26.67
2022-10-22T20:12:32.952Z,17.42
2022-10-22T20:16:19.010Z,22.85
2022-10-22T20:20:00.816Z,15.88
2022-10-22T20:23:43.015Z,22.15
2022-10-22T20:27:24.696Z,13.10
2022-10-22T20:31:15.728Z,15.30
2022-10-22T20:34:57.384Z,14.73
2022-10-22T20:38:39.113Z,13.30
2022-10-22T20:42:21.183Z,19.08
2022-10-22T20:46:03.029Z,13.70
2022-10-22T20:49:44.705Z,17.42
2022-10-22T20:53:27.032Z,16.83
2022-10-22T20:57:08.765Z,19.00
2022-10-22T21:00:51.704Z,16.70
2022-10-22T21:04:34.015Z,13.63
2022-10-22T21:08:17.534Z,13.82
2022-10-22T21:12:03.156Z,14.07
2022-10-22T21:15:44.988Z,20.15
2022-10-22T21:19:26.937Z,16.20
2022-10-22T21:23:08.956Z,14.55
2022-10-22T21:26:51.729Z,10.88
2022-10-22T21:30:33.484Z,16.00
2022-10-22T21:34:17.172Z,13.60
2022-10-22T21:41:40.710Z,14.88
2022-10-22T21:45:22.671Z,17.02
2022-10-22T21:49:04.552Z,13.70
2022-10-22T21:52:46.667Z,12.70
2022-10-22T21:56:30.466Z,14.90
2022-10-22T22:00:12.794Z,15.82
2022-10-22T22:03:54.566Z,14.63
2022-10-22T22:07:36.255Z,14.00
2022-10-22T22:11:19.386Z,14.57
2022-10-22T22:15:01.095Z,12.98
2022-10-22T22:18:42.830Z,7.38
2022-10-22T22:22:25.720Z,12.52
2022-10-22T22:26:07.704Z,13.83
2022-10-22T22:29:49.390Z,17.55
2022-10-22T22:33:31.120Z,16.20
2022-10-22T22:37:12.809Z,16.67
2022-10-22T22:40:54.770Z,12.48
2022-10-22T22:44:36.447Z,15.13
2022-10-22T22:48:18.115Z,11.93
2022-10-22T22:52:01.045Z,13.98
2022-10-22T22:55:42.831Z,12.52
2022-10-22T22:59:24.536Z,16.92
2022-10-22T23:03:07.487Z,9.57
2022-10-22T23:06:49.421Z,14.85
2022-10-22T23:10:31.389Z,16.63
2022-10-22T23:14:14.697Z,27.13
2022-10-22T23:17:56.387Z,24.33
2022-10-22T23:22:01.084Z,14.55
2022-10-22T23:25:42.794Z,15.23
2022-10-22T23:29:26.203Z,16.17
2022-10-22T23:33:08.655Z,14.45
2022-10-22T23:36:50.692Z,14.30
2022-10-22T23:40:32.525Z,13.27
2022-10-22T23:44:15.636Z,13.85
2022-10-22T23:47:57.293Z,13.43
2022-10-22T23:51:39.306Z,13.32
2022-10-22T23:55:20.990Z,11.90
2022-10-22T23:59:02.927Z,12.52
